createdAt,value
2017-12-28T00:00:02.252Z,16.10
2017-12-28T00:02:30.251Z,16.20
2017-12-28T00:04:58.225Z,16.20
2017-12-28T00:07:26.740Z,16.20
2017-12-28T00:09:54.586Z,16.20
2017-12-28T00:12:22.469Z,16.20
2017-12-28T00:14:50.268Z,16.10
2017-12-28T00:17:18.075Z,16.10
2017-12-28T00:19:45.860Z,16.20
2017-12-28T00:22:13.658Z,16.20
2017-12-28T00:24:41.443Z,16.20
2017-12-28T00:27:10.077Z,16.20
2017-12-28T00:29:37.887Z,16.20
2017-12-28T00:32:05.857Z,16.20
2017-12-28T00:34:34.411Z,16.10
2017-12-28T00:37:02.187Z,16.10
2017-12-28T00:39:29.987Z,16.10
2017-12-28T00:41:58.591Z,16.10
2017-12-28T00:44:26.379Z,16.10
2017-12-28T00:46:54.218Z,16.10
2017-12-28T00:49:22.056Z,16.10
2017-12-28T00:51:50.602Z,16.10
2017-12-28T00:54:18.475Z,16.10
2017-12-28T00:56:46.355Z,16.10
2017-12-28T00:59:14.124Z,16.10
2017-12-28T01:01:41.912Z,16.20
2017-12-28T01:04:10.454Z,16.20
2017-12-28T01:06:38.320Z,16.20
2017-12-28T01:09:06.166Z,16.20
2017-12-28T01:11:33.931Z,16.20
2017-12-28T01:14:01.716Z,16.20
2017-12-28T01:16:29.494Z,16.20
2017-12-28T01:18:57.288Z,16.20
2017-12-28T01:21:25.117Z,16.20
2017-12-28T01:23:53.015Z,16.20
2017-12-28T01:26:20.804Z,16.20
2017-12-28T01:28:48.690Z,16.20
2017-12-28T01:31:16.519Z,16.20
2017-12-28T01:33:44.387Z,16.20
2017-12-28T01:36:12.395Z,16.20
2017-12-28T01:38:40.207Z,16.20
2017-12-28T01:41:08.801Z,16.20
2017-12-28T01:43:36.671Z,16.20
2017-12-28T01:46:04.512Z,16.20
2017-12-28T01:48:33.136Z,16.20
2017-12-28T01:51:00.970Z,16.20
2017-12-28T01:53:29.590Z,16.20
2017-12-28T01:55:57.531Z,16.20
2017-12-28T01:58:26.112Z,16.20
2017-12-28T02:00:54.676Z,16.20
2017-12-28T02:03:23.247Z,16.20
2017-12-28T02:05:51.029Z,16.20
2017-12-28T02:08:19.596Z,16.20
2017-12-28T02:10:47.469Z,16.20
2017-12-28T02:13:16.051Z,16.20
2017-12-28T02:15:43.832Z,16.20
2017-12-28T02:18:12.399Z,16.20
2017-12-28T02:20:40.183Z,16.20
2017-12-28T02:23:08.769Z,16.20
2017-12-28T02:25:36.644Z,16.20
2017-12-28T02:28:04.435Z,16.20
2017-12-28T02:30:32.288Z,16.20
2017-12-28T02:33:00.126Z,16.20
2017-12-28T02:35:28.021Z,16.20
2017-12-28T02:37:55.803Z,16.20
2017-12-28T02:40:23.597Z,16.20
2017-12-28T02:42:51.412Z,16.20
2017-12-28T02:45:19.201Z,16.20
2017-12-28T02:47:47.038Z,16.10
2017-12-28T02:50:14.849Z,16.10
2017-12-28T02:52:42.659Z,16.10
2017-12-28T02:55:10.489Z,16.10
2017-12-28T02:57:38.284Z,16.10
2017-12-28T03:00:07.143Z,16.10
2017-12-28T03:02:34.991Z,16.10
2017-12-28T03:05:02.836Z,16.10
2017-12-28T03:07:30.700Z,16.10
2017-12-28T03:09:58.504Z,16.10
2017-12-28T03:12:26.319Z,16.10
2017-12-28T03:14:54.107Z,16.00
2017-12-28T03:17:21.998Z,16.00
2017-12-28T03:19:49.887Z,16.10
2017-12-28T03:22:17.696Z,16.00
2017-12-28T03:24:45.495Z,16.00
2017-12-28T03:27:13.393Z,16.00
2017-12-28T03:29:41.254Z,16.00
2017-12-28T03:32:09.821Z,16.00
2017-12-28T03:34:38.420Z,16.00
2017-12-28T03:37:06.981Z,16.00
2017-12-28T03:39:34.813Z,16.00
2017-12-28T03:42:02.672Z,16.10
2017-12-28T03:44:30.576Z,16.10
2017-12-28T03:46:58.460Z,16.10
2017-12-28T03:49:27.027Z,16.00
2017-12-28T03:51:54.896Z,16.00
2017-12-28T03:54:22.717Z,16.00
2017-12-28T03:56:50.515Z,16.00
2017-12-28T03:59:18.312Z,16.00
2017-12-28T04:01:46.198Z,16.00
2017-12-28T04:04:14.001Z,16.00
2017-12-28T04:06:41.823Z,16.00
2017-12-28T04:09:09.734Z,16.00
2017-12-28T04:11:38.323Z,16.00
2017-12-28T04:14:06.198Z,16.00
2017-12-28T04:16:34.000Z,16.00
2017-12-28T04:19:01.817Z,16.00
2017-12-28T04:21:29.628Z,16.00
2017-12-28T04:23:57.518Z,15.90
2017-12-28T04:26:25.307Z,16.00
2017-12-28T04:28:53.083Z,15.90
2017-12-28T04:31:20.887Z,16.00
2017-12-28T04:33:49.519Z,16.00
2017-12-28T04:36:17.324Z,16.00
2017-12-28T04:38:45.907Z,16.00
2017-12-28T04:41:14.447Z,16.00
2017-12-28T04:43:42.291Z,16.00
2017-12-28T04:46:10.218Z,15.90
2017-12-28T04:48:38.812Z,15.90
2017-12-28T04:51:07.388Z,15.90
2017-12-28T04:53:35.329Z,15.90
2017-12-28T04:56:03.230Z,15.90
2017-12-28T04:58:31.825Z,15.90
2017-12-28T05:00:59.657Z,15.90
2017-12-28T05:03:28.238Z,15.90
2017-12-28T05:05:56.053Z,15.90
2017-12-28T05:08:23.889Z,15.90
2017-12-28T05:10:52.536Z,15.90
2017-12-28T05:13:21.137Z,15.90
2017-12-28T05:15:48.963Z,15.90
2017-12-28T05:18:16.798Z,16.00
2017-12-28T05:20:44.654Z,15.90
2017-12-28T05:23:13.232Z,15.90
2017-12-28T05:25:41.775Z,15.90
2017-12-28T05:28:09.582Z,15.90
2017-12-28T05:30:38.176Z,16.00
2017-12-28T05:33:05.965Z,16.00
2017-12-28T05:35:33.810Z,16.00
2017-12-28T05:38:01.624Z,15.90
2017-12-28T05:40:29.440Z,16.00
2017-12-28T05:42:57.384Z,16.00
2017-12-28T05:45:25.209Z,16.00
2017-12-28T05:47:53.004Z,16.00
2017-12-28T05:50:20.780Z,16.00
2017-12-28T05:52:48.592Z,16.00
2017-12-28T05:55:16.438Z,16.00
2017-12-28T05:57:44.232Z,16.00
2017-12-28T06:00:12.037Z,16.00
2017-12-28T06:02:40.600Z,15.90
2017-12-28T06:05:08.499Z,15.90
2017-12-28T06:07:37.108Z,15.90
2017-12-28T06:10:04.919Z,15.90
2017-12-28T06:12:32.712Z,15.90
2017-12-28T06:15:00.579Z,15.90
2017-12-28T06:17:29.176Z,15.90
2017-12-28T06:19:56.983Z,15.90
2017-12-28T06:22:24.799Z,15.90
2017-12-28T06:24:52.639Z,15.90
2017-12-28T06:27:20.593Z,15.90
2017-12-28T06:29:48.370Z,15.90
2017-12-28T06:32:17.011Z,15.90
2017-12-28T06:34:44.855Z,15.80
2017-12-28T06:37:12.739Z,15.90
2017-12-28T06:39:40.528Z,15.90
2017-12-28T06:42:08.413Z,15.90
2017-12-28T06:44:36.218Z,15.90
2017-12-28T06:47:04.016Z,15.90
2017-12-28T06:49:31.811Z,15.80
2017-12-28T06:51:59.688Z,15.70
2017-12-28T06:54:28.308Z,15.70
2017-12-28T06:56:56.120Z,15.70
2017-12-28T06:59:23.923Z,15.80
2017-12-28T07:01:51.725Z,15.70
2017-12-28T07:04:19.593Z,15.70
2017-12-28T07:06:47.415Z,15.70
2017-12-28T07:09:15.249Z,15.70
2017-12-28T07:11:43.060Z,15.70
2017-12-28T07:14:10.871Z,15.70
2017-12-28T07:16:38.827Z,15.70
2017-12-28T07:19:06.723Z,15.70
2017-12-28T07:21:34.587Z,15.70
2017-12-28T07:24:02.555Z,15.70
2017-12-28T07:26:31.142Z,15.60
2017-12-28T07:28:59.004Z,15.60
2017-12-28T07:31:26.837Z,15.60
2017-12-28T07:33:54.767Z,15.60
2017-12-28T07:36:22.556Z,15.60
2017-12-28T07:38:50.424Z,15.60
2017-12-28T07:41:18.288Z,15.60
2017-12-28T07:43:46.071Z,15.60
2017-12-28T07:46:13.919Z,15.60
2017-12-28T07:48:41.710Z,15.60
2017-12-28T07:51:09.492Z,15.60
2017-12-28T07:53:38.108Z,15.60
2017-12-28T07:56:05.891Z,15.60
2017-12-28T07:58:33.804Z,15.60
2017-12-28T08:01:01.612Z,15.60
2017-12-28T08:03:29.426Z,15.60
2017-12-28T08:05:57.307Z,15.60
2017-12-28T08:08:25.183Z,15.60
2017-12-28T08:10:53.100Z,15.60
2017-12-28T08:13:20.971Z,15.60
2017-12-28T08:15:48.793Z,15.60
2017-12-28T08:18:16.600Z,15.60
2017-12-28T08:20:44.415Z,15.60
2017-12-28T08:23:12.303Z,15.60
2017-12-28T08:25:40.184Z,15.60
2017-12-28T08:28:08.000Z,15.60
2017-12-28T08:30:36.598Z,15.70
2017-12-28T08:33:04.458Z,15.60
2017-12-28T08:35:32.262Z,15.70
2017-12-28T08:38:00.096Z,15.60
2017-12-28T08:40:28.728Z,15.70
2017-12-28T08:42:56.543Z,15.70
2017-12-28T08:45:24.467Z,15.70
2017-12-28T08:47:52.289Z,15.70
2017-12-28T08:50:20.184Z,15.70
2017-12-28T08:52:47.968Z,15.70
2017-12-28T08:55:15.850Z,15.70
2017-12-28T08:57:43.742Z,15.70
2017-12-28T09:00:12.347Z,15.80
2017-12-28T09:02:40.256Z,15.70
2017-12-28T09:05:08.044Z,15.80
2017-12-28T09:07:36.632Z,15.80
2017-12-28T09:10:05.238Z,15.80
2017-12-28T09:12:33.069Z,15.80
2017-12-28T09:15:00.886Z,15.80
2017-12-28T09:17:28.708Z,15.80
2017-12-28T09:19:57.284Z,15.90
2017-12-28T09:22:25.874Z,15.90
2017-12-28T09:24:54.523Z,15.90
2017-12-28T09:27:22.448Z,15.90
2017-12-28T09:29:50.405Z,15.90
2017-12-28T09:32:18.251Z,15.90
2017-12-28T09:34:46.096Z,16.00
2017-12-28T09:37:14.807Z,16.00
2017-12-28T09:39:42.667Z,16.00
2017-12-28T09:42:10.539Z,16.00
2017-12-28T09:44:39.117Z,16.10
2017-12-28T09:47:06.935Z,16.10
2017-12-28T09:49:34.748Z,16.10
2017-12-28T09:52:02.625Z,16.10
2017-12-28T09:54:31.219Z,16.20
2017-12-28T09:56:59.784Z,16.20
2017-12-28T09:59:28.370Z,16.20
2017-12-28T10:01:56.251Z,16.20
2017-12-28T10:04:24.844Z,16.30
2017-12-28T10:06:52.800Z,16.30
2017-12-28T10:09:21.355Z,16.30
2017-12-28T10:11:49.211Z,16.30
2017-12-28T10:14:17.065Z,16.40
2017-12-28T10:16:44.948Z,16.40
2017-12-28T10:19:12.811Z,16.40
2017-12-28T10:21:40.639Z,16.50
2017-12-28T10:24:08.452Z,16.50
2017-12-28T10:26:36.302Z,16.50
2017-12-28T10:29:04.136Z,16.50
2017-12-28T10:31:31.932Z,16.50
2017-12-28T10:33:59.776Z,16.50
2017-12-28T10:36:27.680Z,16.60
2017-12-28T10:38:55.495Z,16.60
2017-12-28T10:41:23.324Z,16.70
2017-12-28T10:43:52.048Z,16.70
2017-12-28T10:46:19.864Z,16.70
2017-12-28T10:48:47.675Z,16.70
2017-12-28T10:51:15.536Z,16.80
2017-12-28T10:53:43.399Z,16.80
2017-12-28T10:56:11.276Z,16.80
2017-12-28T10:58:39.148Z,16.80
2017-12-28T11:01:07.001Z,16.80
2017-12-28T11:03:34.863Z,16.90
2017-12-28T11:06:02.691Z,16.90
2017-12-28T11:08:30.500Z,16.80
2017-12-28T11:10:58.302Z,16.80
2017-12-28T11:13:26.101Z,16.70
2017-12-28T11:15:54.681Z,16.70
2017-12-28T11:18:23.281Z,16.60
2017-12-28T11:20:51.863Z,16.60
2017-12-28T11:23:19.754Z,16.60
2017-12-28T11:25:47.564Z,16.70
2017-12-28T11:28:15.365Z,16.70
2017-12-28T11:30:43.244Z,16.70
2017-12-28T11:33:11.071Z,16.70
2017-12-28T11:35:38.877Z,16.70
2017-12-28T11:38:06.676Z,16.70
2017-12-28T11:40:34.500Z,16.70
2017-12-28T11:43:02.295Z,16.70
2017-12-28T11:45:30.083Z,16.70
2017-12-28T11:47:57.994Z,16.70
2017-12-28T11:50:31.462Z,16.60
2017-12-28T11:53:04.986Z,16.70
2017-12-28T11:55:32.871Z,16.70
2017-12-28T11:58:00.778Z,16.70
2017-12-28T12:00:47.371Z,16.70
2017-12-28T12:03:33.835Z,16.70
2017-12-28T12:06:01.709Z,16.70
2017-12-28T12:08:32.388Z,16.60
2017-12-28T12:11:00.207Z,16.60
2017-12-28T12:13:28.027Z,16.50
2017-12-28T12:15:57.406Z,16.50
2017-12-28T12:18:25.344Z,16.50
2017-12-28T12:20:53.143Z,16.50
2017-12-28T12:23:20.968Z,16.60
2017-12-28T12:25:48.819Z,16.60
2017-12-28T12:28:16.636Z,16.70
2017-12-28T12:30:44.479Z,16.70
2017-12-28T12:33:12.311Z,16.90
2017-12-28T12:35:40.124Z,16.90
2017-12-28T12:38:07.927Z,16.90
2017-12-28T12:40:36.507Z,17.00
2017-12-28T12:43:05.059Z,16.90
2017-12-28T12:45:32.862Z,16.90
2017-12-28T12:48:01.426Z,17.00
2017-12-28T12:50:29.313Z,17.00
2017-12-28T12:52:57.183Z,17.00
2017-12-28T12:55:25.756Z,17.00
2017-12-28T12:57:54.328Z,16.90
2017-12-28T13:00:22.189Z,16.90
2017-12-28T13:02:50.042Z,16.90
2017-12-28T13:05:17.907Z,17.00
2017-12-28T13:07:45.773Z,17.00
2017-12-28T13:10:13.608Z,17.00
2017-12-28T13:12:41.486Z,17.00
2017-12-28T13:15:09.454Z,17.10
2017-12-28T13:17:37.260Z,17.10
2017-12-28T13:20:05.823Z,17.10
2017-12-28T13:22:33.706Z,17.10
2017-12-28T13:25:02.321Z,17.20
2017-12-28T13:27:30.135Z,17.10
2017-12-28T13:29:57.966Z,17.20
2017-12-28T13:32:25.843Z,17.20
2017-12-28T13:34:53.769Z,17.20
2017-12-28T13:37:21.625Z,17.20
2017-12-28T13:39:50.211Z,17.30
2017-12-28T13:42:18.827Z,17.30
2017-12-28T13:44:47.052Z,17.20
2017-12-28T13:47:15.694Z,17.30
2017-12-28T13:49:49.626Z,17.20
2017-12-28T13:52:18.188Z,17.30
2017-12-28T13:54:46.013Z,17.30
2017-12-28T13:57:15.566Z,17.30
2017-12-28T13:59:44.151Z,17.30
2017-12-28T14:02:11.976Z,17.20
2017-12-28T14:04:40.607Z,17.30
2017-12-28T14:07:08.433Z,17.30
2017-12-28T14:09:36.249Z,17.30
2017-12-28T14:12:04.644Z,17.30
2017-12-28T14:14:35.010Z,17.30
2017-12-28T14:17:02.812Z,17.30
2017-12-28T14:19:30.652Z,17.30
2017-12-28T14:21:58.491Z,17.30
2017-12-28T14:24:27.091Z,17.30
2017-12-28T14:26:55.003Z,17.30
2017-12-28T14:29:22.898Z,17.30
2017-12-28T14:31:51.511Z,17.30
2017-12-28T14:34:19.353Z,17.30
2017-12-28T14:36:47.927Z,17.30
2017-12-28T14:39:16.540Z,17.30
2017-12-28T14:41:44.469Z,17.30
2017-12-28T14:44:12.291Z,17.30
2017-12-28T14:46:40.142Z,17.30
2017-12-28T14:49:07.919Z,17.30
2017-12-28T14:51:35.785Z,17.30
2017-12-28T14:54:03.602Z,17.30
2017-12-28T14:56:32.142Z,17.30
2017-12-28T14:58:59.976Z,17.30
2017-12-28T15:01:27.848Z,17.30
2017-12-28T15:03:55.703Z,17.30
2017-12-28T15:06:24.346Z,17.30
2017-12-28T15:08:52.183Z,17.30
2017-12-28T15:11:20.019Z,17.30
2017-12-28T15:13:47.910Z,17.30
2017-12-28T15:16:15.751Z,17.30
2017-12-28T15:18:43.586Z,17.30
2017-12-28T15:21:12.178Z,17.30
2017-12-28T15:23:39.996Z,17.20
2017-12-28T15:26:07.856Z,17.30
2017-12-28T15:28:35.746Z,17.30
2017-12-28T15:31:03.585Z,17.30
2017-12-28T15:33:31.585Z,17.30
2017-12-28T15:35:59.404Z,17.30
2017-12-28T15:38:27.230Z,17.30
2017-12-28T15:40:55.072Z,17.30
2017-12-28T15:43:22.939Z,17.30
2017-12-28T15:45:50.793Z,17.30
2017-12-28T15:48:20.348Z,17.30
2017-12-28T15:50:48.934Z,17.30
2017-12-28T15:53:17.487Z,17.30
2017-12-28T15:55:45.360Z,17.30
2017-12-28T15:58:13.170Z,17.30
2017-12-28T16:00:41.003Z,17.30
2017-12-28T16:03:08.787Z,17.30
2017-12-28T16:05:37.437Z,17.30
2017-12-28T16:08:05.233Z,17.30
2017-12-28T16:10:33.810Z,17.30
2017-12-28T16:13:02.392Z,17.40
2017-12-28T16:15:30.217Z,17.40
2017-12-28T16:17:58.016Z,17.40
2017-12-28T16:20:25.903Z,17.40
2017-12-28T16:22:53.796Z,17.40
2017-12-28T16:25:21.589Z,17.40
2017-12-28T16:27:49.410Z,17.40
2017-12-28T16:30:17.223Z,17.30
2017-12-28T16:32:45.132Z,17.40
2017-12-28T16:35:13.042Z,17.30
2017-12-28T16:37:40.860Z,17.30
2017-12-28T16:40:09.426Z,17.40
2017-12-28T16:42:37.365Z,17.40
2017-12-28T16:45:05.186Z,17.40
2017-12-28T16:47:33.056Z,17.30
2017-12-28T16:50:00.847Z,17.40
2017-12-28T16:52:28.636Z,17.40
2017-12-28T16:54:56.511Z,17.30
2017-12-28T16:57:24.335Z,17.30
2017-12-28T16:59:52.143Z,17.30
2017-12-28T17:02:20.000Z,17.30
2017-12-28T17:04:47.773Z,17.30
2017-12-28T17:07:15.570Z,17.30
2017-12-28T17:09:43.384Z,17.30
2017-12-28T17:12:11.261Z,17.30
2017-12-28T17:14:39.088Z,17.30
2017-12-28T17:17:06.924Z,17.30
2017-12-28T17:19:35.539Z,17.20
2017-12-28T17:22:03.426Z,17.20
2017-12-28T17:24:31.205Z,17.20
2017-12-28T17:26:59.016Z,17.20
2017-12-28T17:29:26.816Z,17.20
2017-12-28T17:31:54.702Z,17.20
2017-12-28T17:34:22.602Z,17.20
2017-12-28T17:36:51.225Z,17.10
2017-12-28T17:39:19.094Z,17.10
2017-12-28T17:41:46.906Z,17.10
2017-12-28T17:44:15.954Z,17.10
2017-12-28T17:46:44.608Z,17.10
2017-12-28T17:49:12.411Z,17.10
2017-12-28T17:51:40.227Z,17.10
2017-12-28T17:54:08.019Z,17.10
2017-12-28T17:56:35.836Z,17.10
2017-12-28T17:59:03.674Z,17.10
2017-12-28T18:01:31.476Z,17.10
2017-12-28T18:04:00.092Z,17.00
2017-12-28T18:06:27.988Z,17.00
2017-12-28T18:08:55.800Z,17.00
2017-12-28T18:11:24.420Z,17.00
2017-12-28T18:13:52.228Z,17.00
2017-12-28T18:16:20.043Z,17.00
2017-12-28T18:18:47.879Z,17.00
2017-12-28T18:21:16.551Z,16.90
2017-12-28T18:23:45.105Z,16.90
2017-12-28T18:26:12.941Z,16.90
2017-12-28T18:28:40.768Z,16.90
2017-12-28T18:31:09.381Z,16.90
2017-12-28T18:33:37.266Z,16.90
2017-12-28T18:36:05.094Z,16.90
2017-12-28T18:38:33.728Z,16.80
2017-12-28T18:41:01.536Z,16.80
2017-12-28T18:43:29.400Z,16.80
2017-12-28T18:45:57.247Z,16.80
2017-12-28T18:48:25.044Z,16.80
2017-12-28T18:50:53.656Z,16.80
2017-12-28T18:53:21.481Z,16.80
2017-12-28T18:55:50.166Z,16.80
2017-12-28T18:58:18.733Z,16.80
2017-12-28T19:00:46.594Z,16.70
2017-12-28T19:03:14.391Z,16.80
2017-12-28T19:05:42.205Z,16.80
2017-12-28T19:08:09.982Z,16.70
2017-12-28T19:10:37.813Z,16.70
2017-12-28T19:13:05.632Z,16.70
2017-12-28T19:15:33.461Z,16.70
2017-12-28T19:18:01.376Z,16.70
2017-12-28T19:20:29.269Z,16.70
2017-12-28T19:22:57.047Z,16.70
2017-12-28T19:25:24.883Z,16.70
2017-12-28T19:27:52.702Z,16.70
2017-12-28T19:30:20.478Z,16.70
2017-12-28T19:32:48.343Z,16.70
2017-12-28T19:35:16.361Z,16.70
2017-12-28T19:37:44.262Z,16.70
2017-12-28T19:40:12.093Z,16.80
2017-12-28T19:42:39.900Z,16.80
2017-12-28T19:45:07.679Z,16.70
2017-12-28T19:47:35.475Z,16.70
2017-12-28T19:50:03.263Z,16.70
2017-12-28T19:52:31.057Z,16.70
2017-12-28T19:54:59.892Z,16.70
2017-12-28T19:57:27.746Z,16.70
2017-12-28T19:59:56.367Z,16.70
2017-12-28T20:02:24.216Z,16.70
2017-12-28T20:04:52.060Z,16.70
2017-12-28T20:07:19.928Z,16.70
2017-12-28T20:09:48.527Z,16.60
2017-12-28T20:12:16.410Z,16.60
2017-12-28T20:14:44.281Z,16.60
2017-12-28T20:17:12.112Z,16.60
2017-12-28T20:19:40.679Z,16.60
2017-12-28T20:22:08.482Z,16.60
2017-12-28T20:24:36.371Z,16.60
2017-12-28T20:27:04.234Z,16.60
2017-12-28T20:29:32.049Z,16.60
2017-12-28T20:32:00.687Z,16.60
2017-12-28T20:34:28.543Z,16.60
2017-12-28T20:36:56.417Z,16.60
2017-12-28T20:39:24.223Z,16.60
2017-12-28T20:41:52.064Z,16.60
2017-12-28T20:44:19.881Z,16.60
2017-12-28T20:46:47.910Z,16.60
2017-12-28T20:49:15.746Z,16.60
2017-12-28T20:51:43.624Z,16.60
2017-12-28T20:54:11.553Z,16.60
2017-12-28T20:56:39.356Z,16.60
2017-12-28T20:59:07.226Z,16.60
2017-12-28T21:01:35.895Z,16.60
2017-12-28T21:04:03.772Z,16.60
2017-12-28T21:06:31.677Z,16.60
2017-12-28T21:08:59.484Z,16.60
2017-12-28T21:11:27.310Z,16.60
2017-12-28T21:13:55.966Z,16.60
2017-12-28T21:16:23.793Z,16.60
2017-12-28T21:18:51.743Z,16.60
2017-12-28T21:21:19.623Z,16.50
2017-12-28T21:23:47.413Z,16.50
2017-12-28T21:26:15.276Z,16.50
2017-12-28T21:28:43.097Z,16.50
2017-12-28T21:31:11.743Z,16.60
2017-12-28T21:33:39.549Z,16.50
2017-12-28T21:36:07.464Z,16.50
2017-12-28T21:38:35.344Z,16.50
2017-12-28T21:41:03.146Z,16.50
2017-12-28T21:43:31.729Z,16.50
2017-12-28T21:46:00.339Z,16.60
2017-12-28T21:48:28.175Z,16.50
2017-12-28T21:50:56.745Z,16.50
2017-12-28T21:53:24.600Z,16.50
2017-12-28T21:55:54.449Z,16.50
2017-12-28T21:58:23.029Z,16.50
2017-12-28T22:00:51.694Z,16.50
2017-12-28T22:03:20.324Z,16.50
2017-12-28T22:05:48.159Z,16.50
2017-12-28T22:08:16.768Z,16.50
2017-12-28T22:10:44.652Z,16.50
2017-12-28T22:13:12.439Z,16.50
2017-12-28T22:15:43.173Z,16.50
2017-12-28T22:18:11.029Z,16.50
2017-12-28T22:20:38.810Z,16.50
2017-12-28T22:23:06.633Z,16.50
2017-12-28T22:25:34.423Z,16.50
2017-12-28T22:28:02.299Z,16.40
2017-12-28T22:30:30.159Z,16.50
2017-12-28T22:32:57.975Z,16.40
2017-12-28T22:35:25.861Z,16.50
2017-12-28T22:37:53.672Z,16.50
2017-12-28T22:40:21.538Z,16.50
2017-12-28T22:42:50.108Z,16.60
2017-12-28T22:45:17.915Z,16.60
2017-12-28T22:47:46.493Z,16.60
2017-12-28T22:50:15.124Z,16.60
2017-12-28T22:52:42.935Z,16.50
2017-12-28T22:55:11.600Z,16.50
2017-12-28T22:57:39.435Z,16.50
2017-12-28T23:00:07.268Z,16.50
2017-12-28T23:02:35.077Z,16.50
2017-12-28T23:05:02.901Z,16.50
2017-12-28T23:07:30.734Z,16.50
2017-12-28T23:09:59.392Z,16.50
2017-12-28T23:12:27.183Z,16.50
2017-12-28T23:14:55.017Z,16.50
2017-12-28T23:17:22.879Z,16.50
2017-12-28T23:19:50.774Z,16.50
2017-12-28T23:22:18.636Z,16.40
2017-12-28T23:24:46.500Z,16.40
2017-12-28T23:27:14.287Z,16.40
2017-12-28T23:29:42.873Z,16.40
2017-12-28T23:32:11.469Z,16.40
2017-12-28T23:34:40.028Z,16.40
2017-12-28T23:37:07.808Z,16.40
2017-12-28T23:39:36.479Z,16.40
2017-12-28T23:42:06.037Z,16.40
2017-12-28T23:44:33.889Z,16.30
2017-12-28T23:47:01.743Z,16.40
2017-12-28T23:49:29.595Z,16.40
2017-12-28T23:51:58.191Z,16.40
2017-12-28T23:54:26.013Z,16.40
2017-12-28T23:56:53.936Z,16.40
2017-12-28T23:59:21.837Z,16.40
